Northpoint, Pennsylvania
Current Conditions -  °F | °C
As of 6:15 PM on Tuesday 25 Nov 2014 (Local Time) from KIDI Reporting Station
Scattered Clouds Scattered Clouds  
Wind Chill: 36°   Ceiling: Unl
Heat Index: 41°   Visibility: 10mi
Dew Point: 28°   Wind: 8mph
Humidity: 61%   Direction: 330°NNW
Pressure: 30.13"   Gusts: 14mph
Location:  40.91°N, 79.13°W
Report Text: KIDI 252315Z AUTO 33007G12KT 10SM SCT046 05/M02 A3013 RMK A01
Loading
Personal Weather Stations






























Interactive Weather Map New forecast layout! Learn more

10-Day Weather Forecast

Advertisements
Track Severe Weather on mobile